Time;durP1;ratioP1;P1;durP2;ratioP2;P2;SDS_P1;SDS_P2;PMS_P1;PMS_P2;Temp;Humidity;BMP_temperature;BMP_pressure;BME280_temperature;BME280_humidity;BME280_pressure;Samples;Min_cycle;Max_cycle;Signal;HPM_P1;HPM_P2
2023/05/26 00:03:21;;;;;;;11.97;7.13;;;;;;;6.35;100.00;97435.19;10536832;28;20201;-63
2023/05/26 00:08:22;;;;;;;11.40;6.67;;;;;;;6.29;100.00;97433.84;10536288;28;20206;-63
2023/05/26 00:13:22;;;;;;;9.60;6.10;;;;;;;6.24;100.00;97436.78;10536414;28;20230;-62
2023/05/26 00:18:26;;;;;;;18.50;7.23;;;;;;;6.20;100.00;97434.53;10536088;28;20210;-63
2023/05/26 00:23:27;;;;;;;16.03;6.87;;;;;;;6.16;100.00;97426.13;10535860;28;20217;-63
2023/05/26 00:28:27;;;;;;;13.60;7.47;;;;;;;6.03;100.00;97434.00;10536210;28;20236;-63
2023/05/26 00:33:27;;;;;;;11.03;6.77;;;;;;;6.01;100.00;97428.06;10535666;28;20222;-62
2023/05/26 00:38:28;;;;;;;13.80;6.63;;;;;;;5.95;100.00;97436.25;10535716;28;20234;-64
2023/05/26 00:43:28;;;;;;;13.23;6.80;;;;;;;5.97;100.00;97431.84;10506684;22;20251;-66
2023/05/26 00:48:28;;;;;;;14.07;6.80;;;;;;;5.89;100.00;97426.31;10493698;28;20198;-67
2023/05/26 00:53:29;;;;;;;16.73;7.37;;;;;;;5.90;100.00;97428.78;10493561;28;20602;-67
2023/05/26 00:58:29;;;;;;;10.57;7.00;;;;;;;5.85;100.00;97427.44;10493343;28;20654;-67
2023/05/26 01:03:30;;;;;;;9.43;6.90;;;;;;;5.81;100.00;97426.03;10475259;28;20310;-67
2023/05/26 01:08:30;;;;;;;16.63;6.83;;;;;;;5.72;100.00;97423.13;10493224;28;20199;-67
2023/05/26 01:13:37;;;;;;;15.00;7.30;;;;;;;5.71;100.00;97416.28;10475256;28;20773;-67
2023/05/26 01:18:45;;;;;;;10.27;7.70;;;;;;;5.59;100.00;97416.28;10480596;28;20195;-66
2023/05/26 01:24:11;;;;;;;17.60;7.20;;;;;;;5.55;100.00;97413.09;10482871;28;20279;-66
2023/05/26 01:29:14;;;;;;;15.90;7.67;;;;;;;5.50;100.00;97408.22;10500738;28;20223;-67
2023/05/26 01:34:15;;;;;;;15.40;7.80;;;;;;;5.48;100.00;97415.31;10500390;28;20187;-66
2023/05/26 01:39:15;;;;;;;16.73;7.30;;;;;;;5.46;100.00;97408.53;10482380;28;20203;-66
2023/05/26 01:44:26;;;;;;;15.03;8.87;;;;;;;5.40;100.00;97407.19;10499979;28;20194;-67
2023/05/26 01:49:28;;;;;;;12.67;7.17;;;;;;;5.40;100.00;97416.75;10499785;28;20219;-66
2023/05/26 01:54:35;;;;;;;17.57;7.17;;;;;;;5.38;100.00;97410.84;10499983;28;20283;-68
2023/05/26 01:59:36;;;;;;;9.37;6.53;;;;;;;5.30;100.00;97408.78;10481790;28;20589;-66
2023/05/26 02:04:36;;;;;;;12.00;7.50;;;;;;;5.31;100.00;97411.28;10481494;28;20186;-66
2023/05/26 02:09:37;;;;;;;14.33;8.73;;;;;;;5.21;100.00;97409.41;10499216;28;20223;-66
2023/05/26 02:14:37;;;;;;;12.00;7.63;;;;;;;5.27;100.00;97416.81;10499046;28;20186;-66
2023/05/26 02:19:37;;;;;;;16.30;8.23;;;;;;;5.20;100.00;97418.97;10498852;28;20286;-67
2023/05/26 02:24:38;;;;;;;21.23;11.67;;;;;;;5.20;100.00;97420.75;10480704;28;20221;-66
2023/05/26 02:29:38;;;;;;;12.10;7.50;;;;;;;5.16;100.00;97426.16;10497028;28;20226;-67
2023/05/26 02:34:39;;;;;;;17.13;9.10;;;;;;;5.14;100.00;97424.59;10480240;28;20183;-66
2023/05/26 02:39:39;;;;;;;13.93;9.03;;;;;;;5.15;100.00;97419.28;10496540;28;20235;-66
2023/05/26 02:44:40;;;;;;;16.67;7.57;;;;;;;5.13;100.00;97420.31;10497906;28;20191;-66
2023/05/26 02:49:40;;;;;;;13.60;7.47;;;;;;;5.06;100.00;97419.09;10497094;28;20249;-66
2023/05/26 02:54:41;;;;;;;16.67;8.97;;;;;;;5.05;100.00;97415.66;10497290;28;20298;-67
2023/05/26 02:59:41;;;;;;;12.43;8.33;;;;;;;5.02;100.00;97422.81;10496571;28;20290;-66
2023/05/26 03:04:41;;;;;;;14.10;8.30;;;;;;;4.91;100.00;97421.78;10497170;28;20206;-66
2023/05/26 03:09:42;;;;;;;15.23;7.77;;;;;;;4.92;100.00;97423.44;10496255;28;20280;-67
2023/05/26 03:14:42;;;;;;;18.73;8.63;;;;;;;4.89;100.00;97421.06;10478821;28;20243;-67
2023/05/26 03:19:44;;;;;;;9.33;5.67;;;;;;;4.90;100.00;97422.72;10478557;28;20260;-66
2023/05/26 03:24:45;;;;;;;16.03;9.10;;;;;;;4.91;100.00;97426.97;10496256;28;20556;-66
2023/05/26 03:29:46;;;;;;;16.10;7.90;;;;;;;4.85;100.00;97426.56;10478247;28;20222;-66
2023/05/26 03:34:47;;;;;;;15.37;7.33;;;;;;;4.84;100.00;97428.34;10477720;28;20184;-66
2023/05/26 03:39:47;;;;;;;13.60;8.83;;;;;;;4.78;100.00;97426.16;10477800;28;20316;-67
2023/05/26 03:44:47;;;;;;;19.13;9.77;;;;;;;4.81;100.00;97425.94;10477665;28;20187;-67
2023/05/26 03:49:48;;;;;;;16.83;10.83;;;;;;;4.76;100.00;97423.66;10477203;28;20230;-66
2023/05/26 03:54:50;;;;;;;14.53;8.87;;;;;;;4.86;100.00;97426.47;10477516;28;20688;-66
2023/05/26 03:59:51;;;;;;;18.53;8.80;;;;;;;4.95;100.00;97425.00;10476499;28;20628;-67
2023/05/26 04:04:52;;;;;;;15.00;8.73;;;;;;;5.09;100.00;97424.06;10495099;28;20248;-67
2023/05/26 04:09:52;;;;;;;14.67;8.77;;;;;;;5.18;100.00;97421.66;10476399;28;20223;-67
2023/05/26 04:14:52;;;;;;;14.57;8.30;;;;;;;5.21;100.00;97418.03;10494547;28;20248;-67
2023/05/26 04:19:53;;;;;;;12.80;7.50;;;;;;;5.24;100.00;97417.84;10476324;28;20211;-67
2023/05/26 04:24:53;;;;;;;12.33;7.53;;;;;;;5.38;100.00;97419.47;10476125;28;20183;-68
2023/05/26 04:30:05;;;;;;;17.27;8.07;;;;;;;5.56;100.00;97426.91;10476247;28;20345;-67
2023/05/26 04:35:15;;;;;;;16.03;9.07;;;;;;;5.74;100.00;97433.41;10476192;28;20279;-68
2023/05/26 04:40:18;;;;;;;13.47;7.60;;;;;;;5.92;100.00;97430.47;10475724;28;20231;-67
2023/05/26 04:45:18;;;;;;;14.40;8.20;;;;;;;6.15;100.00;97434.03;10493765;28;20206;-67
2023/05/26 04:50:24;;;;;;;16.60;7.97;;;;;;;6.33;100.00;97437.09;10475822;28;20226;-67
2023/05/26 04:55:25;;;;;;;12.67;7.47;;;;;;;6.51;100.00;97445.28;10484285;28;20183;-68
2023/05/26 05:00:25;;;;;;;15.87;8.23;;;;;;;6.61;100.00;97430.66;10484012;28;20224;-67
2023/05/26 05:05:33;;;;;;;15.20;7.53;;;;;;;6.87;100.00;97420.91;10487562;28;20218;-67
2023/05/26 05:10:33;;;;;;;14.33;8.03;;;;;;;7.02;100.00;97415.50;10504584;28;20309;-67
2023/05/26 05:15:34;;;;;;;17.60;7.90;;;;;;;7.36;100.00;97408.50;10514694;28;20272;-67
2023/05/26 05:20:35;;;;;;;11.37;7.27;;;;;;;7.86;100.00;97406.31;10483118;28;20261;-67
2023/05/26 05:25:35;;;;;;;12.03;7.30;;;;;;;8.21;100.00;97401.81;10482212;28;20238;-67
2023/05/26 05:30:37;;;;;;;17.43;8.50;;;;;;;8.62;100.00;97399.41;10482934;28;20231;-67
2023/05/26 05:35:37;;;;;;;20.00;8.13;;;;;;;8.88;100.00;97405.06;10513473;28;20346;-67
2023/05/26 05:40:38;;;;;;;14.33;7.03;;;;;;;9.35;100.00;97413.28;10524273;28;20723;-67
2023/05/26 05:45:38;;;;;;;14.67;7.47;;;;;;;9.68;100.00;97402.66;10494983;28;20608;-67
2023/05/26 05:50:42;;;;;;;14.70;7.83;;;;;;;10.29;100.00;97412.97;10499979;28;20223;-67
2023/05/26 05:55:46;;;;;;;28.70;14.80;;;;;;;10.67;100.00;97416.56;10487900;28;20194;-66
2023/05/26 06:00:46;;;;;;;21.35;11.27;;;;;;;11.12;100.00;97407.22;10523022;28;20604;-67
2023/05/26 06:05:47;;;;;;;15.73;8.93;;;;;;;11.21;100.00;97408.16;10520888;28;20190;-66
2023/05/26 06:10:47;;;;;;;12.32;7.07;;;;;;;11.85;100.00;97400.41;10540840;28;20313;-67
2023/05/26 06:15:48;;;;;;;17.27;7.82;;;;;;;12.39;100.00;97393.44;10538980;28;20277;-67
2023/05/26 06:20:49;;;;;;;14.93;7.00;;;;;;;13.12;100.00;97394.09;10522543;28;20202;-67
2023/05/26 06:25:51;;;;;;;14.90;6.25;;;;;;;13.94;99.68;97383.94;10508668;28;20191;-67
2023/05/26 06:30:54;;;;;;;17.80;7.28;;;;;;;14.43;93.79;97380.56;10480956;28;20305;-67
2023/05/26 06:36:13;;;;;;;16.92;6.57;;;;;;;16.19;82.42;97334.81;10479990;28;20240;-67
2023/05/26 06:41:14;;;;;;;14.85;6.25;;;;;;;15.73;81.45;97347.91;10541935;22;20295;-65
2023/05/26 06:46:15;;;;;;;9.40;4.80;;;;;;;16.93;73.64;97290.00;10525188;28;20246;-66
2023/05/26 06:51:16;;;;;;;15.13;5.88;;;;;;;17.54;73.69;97309.31;10580379;28;20206;-65
2023/05/26 06:56:16;;;;;;;17.75;5.95;;;;;;;17.66;71.25;97302.50;10576973;28;20183;-65
2023/05/26 07:01:16;;;;;;;15.57;6.07;;;;;;;18.57;66.62;97270.09;10537152;28;20289;-65
2023/05/26 07:06:17;;;;;;;13.98;5.45;;;;;;;18.91;63.76;97243.81;10515048;28;20186;-65
2023/05/26 07:11:19;;;;;;;15.48;6.07;;;;;;;18.26;64.73;97267.84;10518331;28;20593;-65
2023/05/26 07:16:22;;;;;;;13.25;6.03;;;;;;;16.68;71.16;97352.91;10518333;28;20222;-65
2023/05/26 07:21:25;;;;;;;22.85;6.97;;;;;;;15.99;73.23;97361.69;10517951;28;20424;-65
2023/05/26 07:26:25;;;;;;;11.45;6.35;;;;;;;17.00;72.01;97345.69;10519158;28;20610;-64
2023/05/26 07:31:26;;;;;;;15.95;6.43;;;;;;;17.38;70.85;97345.59;10517158;28;20387;-65
2023/05/26 07:36:29;;;;;;;12.65;6.95;;;;;;;17.97;67.37;97317.34;10533950;28;20195;-65
2023/05/26 07:41:30;;;;;;;18.02;7.18;;;;;;;17.23;68.50;97323.59;10513065;28;20234;-65
2023/05/26 07:46:31;;;;;;;15.20;6.75;;;;;;;16.77;70.47;97351.00;10497007;28;20257;-65
2023/05/26 07:51:32;;;;;;;16.88;7.55;;;;;;;16.18;71.79;97354.28;10520023;28;20763;-65
2023/05/26 07:56:32;;;;;;;13.35;8.10;;;;;;;15.70;74.00;97381.63;10531296;28;20684;-65
2023/05/26 08:01:32;;;;;;;16.77;7.82;;;;;;;16.08;74.59;97394.19;10530027;28;20767;-65
2023/05/26 08:06:33;;;;;;;12.20;7.28;;;;;;;16.66;72.29;97370.78;10532265;28;20729;-65
2023/05/26 08:11:33;;;;;;;17.83;9.00;;;;;;;16.68;73.72;97395.22;10529270;28;20701;-64
2023/05/26 08:16:33;;;;;;;14.23;8.13;;;;;;;16.87;75.16;97403.69;10531331;28;20285;-65
2023/05/26 08:21:35;;;;;;;19.15;7.93;;;;;;;17.43;69.97;97337.09;10523687;28;20264;-65
2023/05/26 08:26:35;;;;;;;20.45;8.18;;;;;;;18.05;68.46;97335.78;10531861;28;20195;-65
2023/05/26 08:31:36;;;;;;;14.55;7.65;;;;;;;18.70;65.13;97304.69;10531143;28;20214;-65
2023/05/26 08:36:36;;;;;;;17.83;7.82;;;;;;;17.25;69.11;97348.06;10531975;28;20199;-65
2023/05/26 08:41:56;;;;;;;18.73;8.45;;;;;;;18.32;65.69;97317.47;10530679;28;20365;-65
2023/05/26 08:47:00;;;;;;;20.48;8.73;;;;;;;18.60;62.00;97261.75;10493405;28;20187;-65
2023/05/26 08:52:04;;;;;;;15.32;8.10;;;;;;;18.75;62.94;97290.84;10531784;28;20215;-67
2023/05/26 08:57:06;;;;;;;20.27;8.98;;;;;;;18.61;60.45;97257.28;10514932;28;20194;-65
2023/05/26 09:02:06;;;;;;;22.65;8.73;;;;;;;18.02;63.96;97304.34;10531816;28;20202;-65
2023/05/26 09:07:08;;;;;;;20.33;8.93;;;;;;;19.33;60.56;97279.97;10541665;28;20202;-65
2023/05/26 09:12:10;;;;;;;16.45;8.18;;;;;;;19.01;60.18;97278.78;10530909;28;20646;-66
2023/05/26 09:17:11;;;;;;;13.73;7.28;;;;;;;20.42;55.27;97211.59;10531514;28;20202;-67
2023/05/26 09:22:13;;;;;;;19.98;7.43;;;;;;;19.94;53.81;97186.06;10513336;28;20210;-66
2023/05/26 09:27:21;;;;;;;14.73;5.72;;;;;;;22.53;48.23;97156.72;10545534;28;20186;-67
2023/05/26 09:32:26;;;;;;;21.17;7.07;;;;;;;21.27;51.67;97200.13;10551920;28;20226;-68
2023/05/26 09:37:30;;;;;;;15.60;5.55;;;;;;;21.97;48.42;97161.94;10531698;28;20269;-67
2023/05/26 09:42:30;;;;;;;22.92;6.30;;;;;;;20.54;50.47;97169.22;10538258;28;20327;-66
2023/05/26 09:47:33;;;;;;;14.18;5.78;;;;;;;20.61;51.71;97191.31;10537387;28;20210;-66
2023/05/26 09:52:34;;;;;;;16.75;5.63;;;;;;;21.98;50.03;97203.59;10539262;28;20605;-66
2023/05/26 09:57:35;;;;;;;18.50;5.28;;;;;;;20.93;49.71;97169.31;10537224;28;20243;-66
2023/05/26 10:02:36;;;;;;;18.52;6.07;;;;;;;20.28;54.17;97252.56;10538024;28;20207;-67
2023/05/26 10:07:36;;;;;;;17.80;5.57;;;;;;;20.73;50.17;97188.84;10538685;28;20182;-67
2023/05/26 10:12:37;;;;;;;16.17;5.43;;;;;;;20.75;52.69;97234.72;10548126;28;20268;-68
2023/05/26 10:17:38;;;;;;;17.23;5.05;;;;;;;22.09;46.95;97152.16;10532723;28;20195;-67
2023/05/26 10:23:01;;;;;;;15.35;5.13;;;;;;;20.87;50.85;97200.25;10537519;28;20252;-66
2023/05/26 10:28:25;;;;;;;16.83;4.97;;;;;;;20.27;50.00;97163.13;10514220;28;20218;-67
2023/05/26 10:33:42;;;;;;;13.75;4.72;;;;;;;21.14;49.45;97178.84;10519480;28;20230;-66
2023/05/26 10:38:51;;;;;;;14.20;4.60;;;;;;;21.79;47.91;97162.72;10567860;28;20194;-67
2023/05/26 10:43:51;;;;;;;11.55;4.15;;;;;;;21.40;47.27;97147.78;10548396;28;20284;-66
2023/05/26 10:48:57;;;;;;;21.95;5.55;;;;;;;20.28;49.02;97146.94;10532061;28;20219;-70
2023/05/26 10:53:57;;;;;;;12.15;4.18;;;;;;;22.08;44.43;97104.38;10536466;28;20222;-68
2023/05/26 10:58:58;;;;;;;13.32;4.20;;;;;;;22.29;43.44;97076.44;10522331;28;20195;-68
2023/05/26 11:04:08;;;;;;;13.13;4.20;;;;;;;23.38;42.12;97099.75;10540807;28;20727;-68
2023/05/26 11:09:09;;;;;;;16.45;4.38;;;;;;;22.82;42.19;97067.00;10547356;28;20240;-67
2023/05/26 11:14:10;;;;;;;14.93;4.25;;;;;;;24.98;40.94;97132.75;10536955;28;20283;-67
2023/05/26 11:19:10;;;;;;;17.50;4.53;;;;;;;24.37;40.60;97080.38;10534051;28;20408;-68
2023/05/26 11:24:11;;;;;;;12.13;4.23;;;;;;;26.05;36.84;97044.44;10534997;28;20322;-68
2023/05/26 11:29:12;;;;;;;9.75;3.40;;;;;;;25.31;34.57;96965.00;10556665;28;20444;-71
2023/05/26 11:34:12;;;;;;;9.27;3.37;;;;;;;24.88;33.90;96941.22;10546813;28;20894;-68
2023/05/26 11:39:13;;;;;;;11.27;3.47;;;;;;;25.13;32.56;96920.44;10559184;28;20961;-70
2023/05/26 11:44:15;;;;;;;10.68;3.63;;;;;;;24.10;36.39;96998.94;10547698;28;20735;-68
2023/05/26 11:49:17;;;;;;;12.18;3.60;;;;;;;25.88;34.28;97022.97;10545403;28;20197;-68
2023/05/26 11:54:18;;;;;;;12.20;3.63;;;;;;;23.84;38.35;97039.38;10533339;28;20246;-69
2023/05/26 11:59:20;;;;;;;13.05;4.03;;;;;;;23.61;39.61;97066.88;10532478;28;20232;-69
2023/05/26 12:04:26;;;;;;;13.52;4.43;;;;;;;25.17;37.03;97058.34;10533467;28;20819;-69
2023/05/26 12:09:27;;;;;;;11.30;3.63;;;;;;;25.60;34.74;97001.38;10537636;28;20274;-68
2023/05/26 12:14:27;;;;;;;12.02;3.33;;;;;;;25.18;34.33;96983.00;10533703;28;20277;-69
2023/05/26 12:19:27;;;;;;;9.48;3.13;;;;;;;25.16;30.63;96867.16;10531522;28;20186;-69
2023/05/26 12:24:33;;;;;;;16.25;3.17;;;;;;;24.95;29.58;96833.88;10537422;28;20194;-69
2023/05/26 12:29:40;;;;;;;9.23;2.90;;;;;;;24.02;31.63;96874.34;10531115;28;20195;-68
2023/05/26 12:34:41;;;;;;;10.65;3.45;;;;;;;23.86;33.14;96921.41;10533384;28;20187;-68
2023/05/26 12:39:42;;;;;;;13.60;2.97;;;;;;;25.04;30.74;96888.69;10555669;28;20201;-65
2023/05/26 12:44:42;;;;;;;10.38;3.40;;;;;;;24.19;33.34;96942.13;10544347;28;20222;-67
2023/05/26 12:49:42;;;;;;;12.73;3.37;;;;;;;23.79;34.68;96958.13;10530955;28;20242;-66
2023/05/26 12:54:43;;;;;;;15.70;3.27;;;;;;;25.65;33.01;96976.50;10513493;28;20535;-67
2023/05/26 12:59:43;;;;;;;14.15;4.00;;;;;;;26.51;32.47;96994.81;10530204;28;20476;-67
2023/05/26 13:04:43;;;;;;;11.98;3.85;;;;;;;25.17;33.98;96989.44;10531948;28;20193;-67
2023/05/26 13:09:45;;;;;;;12.13;3.65;;;;;;;24.75;35.28;97003.19;10523528;28;20215;-66
2023/05/26 13:14:46;;;;;;;13.88;3.47;;;;;;;24.47;34.60;96961.94;10498924;28;20614;-66
2023/05/26 13:19:46;;;;;;;17.17;3.90;;;;;;;25.73;31.04;96909.00;10506667;28;20211;-66
2023/05/26 13:24:46;;;;;;;9.13;3.00;;;;;;;25.13;32.95;96948.09;10540671;28;20444;-67
2023/05/26 13:29:47;;;;;;;10.53;3.70;;;;;;;25.28;34.01;96987.72;10539375;28;20520;-67
2023/05/26 13:34:47;;;;;;;10.13;2.93;;;;;;;27.76;30.25;96955.25;10541550;28;20425;-67
2023/05/26 13:39:47;;;;;;;11.60;3.50;;;;;;;24.68;32.79;96908.75;10540762;28;20524;-66
2023/05/26 13:44:48;;;;;;;8.53;3.53;;;;;;;27.55;29.68;96942.72;10539871;28;20535;-66
2023/05/26 13:49:48;;;;;;;10.43;3.38;;;;;;;27.94;29.26;96961.25;10540089;28;20483;-67
2023/05/26 13:54:48;;;;;;;12.37;3.43;;;;;;;28.47;28.06;96932.38;10538806;28;20205;-67
2023/05/26 13:59:49;;;;;;;13.20;3.77;;;;;;;27.49;27.23;96858.50;10539221;28;20500;-67
2023/05/26 14:04:49;;;;;;;8.70;3.83;;;;;;;27.39;27.89;96867.31;10561869;28;20459;-67
2023/05/26 14:09:50;;;;;;;13.90;3.90;;;;;;;27.65;28.24;96897.03;10582417;28;20234;-67
2023/05/26 14:14:50;;;;;;;10.00;3.40;;;;;;;27.96;28.19;96905.28;10574494;28;20797;-66
2023/05/26 14:19:50;;;;;;;13.27;3.40;;;;;;;30.22;24.10;96861.94;10581855;28;20250;-66
2023/05/26 14:24:51;;;;;;;10.38;3.88;;;;;;;28.73;26.00;96865.03;10576828;28;20992;-67
2023/05/26 14:29:52;;;;;;;7.80;3.33;;;;;;;28.79;26.10;96874.75;10537490;28;20301;-67
2023/05/26 14:34:52;;;;;;;11.93;3.47;;;;;;;28.75;26.29;96873.66;10537095;28;20271;-66
2023/05/26 14:39:53;;;;;;;11.27;3.42;;;;;;;29.75;26.54;96927.25;10538346;28;20320;-67
2023/05/26 14:44:53;;;;;;;9.13;3.40;;;;;;;28.99;26.75;96898.22;10536583;28;20309;-67
2023/05/26 14:49:56;;;;;;;8.83;3.17;;;;;;;27.72;27.98;96888.75;10538094;28;20480;-67
2023/05/26 14:54:56;;;;;;;10.27;3.50;;;;;;;28.41;28.15;96925.34;10537106;28;20441;-66
2023/05/26 14:59:56;;;;;;;9.20;3.00;;;;;;;29.11;26.66;96903.31;10533083;28;20313;-68
2023/05/26 15:04:57;;;;;;;12.57;3.50;;;;;;;26.86;28.32;96869.09;10535771;28;20444;-66
2023/05/26 15:09:57;;;;;;;11.77;3.50;;;;;;;26.74;28.08;96853.16;10537343;28;20495;-67
2023/05/26 15:14:58;;;;;;;10.27;3.43;;;;;;;27.34;29.20;96909.53;10535227;28;20277;-67
2023/05/26 15:19:58;;;;;;;13.30;3.50;;;;;;;28.79;26.84;96899.03;10554336;28;20474;-67
2023/05/26 15:24:59;;;;;;;10.52;3.42;;;;;;;27.50;27.67;96856.59;10550615;28;20433;-67
2023/05/26 15:29:59;;;;;;;11.55;3.65;;;;;;;26.15;29.53;96864.66;10543146;28;20608;-66
2023/05/26 15:34:59;;;;;;;13.03;2.90;;;;;;;27.34;27.10;96840.38;10537576;28;20747;-67
2023/05/26 15:40:00;;;;;;;10.37;3.20;;;;;;;25.97;28.13;96820.97;10537235;28;20476;-67
2023/05/26 15:45:04;;;;;;;13.75;3.15;;;;;;;26.66;27.67;96843.69;10547055;28;20453;-67
2023/05/26 15:50:05;;;;;;;12.85;3.90;;;;;;;26.41;28.17;96838.06;10579057;28;20300;-67
2023/05/26 15:55:06;;;;;;;7.90;3.45;;;;;;;24.37;29.69;96812.59;10542181;28;20209;-67
2023/05/26 16:00:10;;;;;;;13.23;3.53;;;;;;;24.36;29.93;96819.03;10536528;28;20213;-67
2023/05/26 16:05:10;;;;;;;11.80;3.83;;;;;;;23.09;32.20;96834.16;10561824;28;20687;-67
2023/05/26 16:10:10;;;;;;;13.18;3.50;;;;;;;22.23;33.43;96831.81;10578467;28;20236;-66
2023/05/26 16:15:11;;;;;;;16.10;3.65;;;;;;;20.91;36.06;96871.25;10550290;28;20222;-66
2023/05/26 16:20:11;;;;;;;8.63;3.28;;;;;;;20.48;37.38;96904.72;10536208;28;20221;-65
2023/05/26 16:25:11;;;;;;;14.15;3.80;;;;;;;20.59;37.17;96919.19;10536054;28;20218;-66
2023/05/26 16:30:12;;;;;;;11.35;3.40;;;;;;;20.00;36.01;96851.19;10535993;28;20225;-66
2023/05/26 16:35:13;;;;;;;9.20;3.03;;;;;;;20.54;35.69;96873.75;10536891;28;20198;-67
2023/05/26 16:40:13;;;;;;;11.93;3.17;;;;;;;20.63;36.82;96919.56;10538915;28;20231;-66
2023/05/26 16:45:13;;;;;;;10.30;3.47;;;;;;;20.41;38.48;96943.88;10535514;28;20656;-65
2023/05/26 16:50:14;;;;;;;8.25;3.13;;;;;;;20.53;38.24;96946.66;10534380;28;20598;-65
2023/05/26 16:55:14;;;;;;;14.13;3.67;;;;;;;20.03;38.75;96943.84;10535479;28;20201;-67
2023/05/26 17:00:15;;;;;;;16.48;3.42;;;;;;;19.82;39.05;96939.63;10534499;28;20206;-66
2023/05/26 17:05:15;;;;;;;13.80;3.63;;;;;;;19.54;39.83;96960.13;10534924;28;20186;-66
2023/05/26 17:10:17;;;;;;;12.68;3.35;;;;;;;19.08;40.20;96945.00;10534652;28;20324;-67
2023/05/26 17:15:18;;;;;;;12.80;3.00;;;;;;;19.04;41.02;96965.06;10534546;28;20202;-66
2023/05/26 17:20:18;;;;;;;10.35;2.90;;;;;;;19.04;40.42;96960.56;10534352;28;20554;-66
2023/05/26 17:25:19;;;;;;;16.33;3.30;;;;;;;18.43;40.95;96950.03;10534155;28;20202;-66
2023/05/26 17:30:19;;;;;;;11.20;3.40;;;;;;;18.52;40.08;96941.69;10534165;28;20234;-66
2023/05/26 17:35:20;;;;;;;8.25;3.17;;;;;;;18.03;40.70;96942.78;10534582;28;20281;-65
2023/05/26 17:40:21;;;;;;;8.10;3.22;;;;;;;17.51;41.28;96936.97;10534430;28;20241;-66
2023/05/26 17:45:21;;;;;;;11.82;3.20;;;;;;;17.47;42.57;96980.75;10534453;28;20201;-66
2023/05/26 17:50:21;;;;;;;12.10;3.33;;;;;;;17.03;43.51;96995.06;10533609;28;20218;-65
2023/05/26 17:55:23;;;;;;;15.25;3.45;;;;;;;16.77;44.32;97007.84;10533826;28;20225;-65
2023/05/26 18:00:23;;;;;;;11.90;3.22;;;;;;;16.69;44.84;97023.84;10538063;28;20256;-65
2023/05/26 18:05:24;;;;;;;14.73;3.97;;;;;;;16.66;45.11;97034.81;10541346;28;20190;-65
2023/05/26 18:10:24;;;;;;;9.98;3.30;;;;;;;16.41;45.86;97050.19;10540612;28;20712;-65
2023/05/26 18:15:25;;;;;;;9.35;3.08;;;;;;;16.02;47.57;97080.41;10540980;28;20671;-65
2023/05/26 18:20:27;;;;;;;8.70;3.17;;;;;;;15.95;47.46;97077.63;10540301;28;20280;-65
2023/05/26 18:25:31;;;;;;;10.70;3.17;;;;;;;15.78;47.82;97076.19;10540540;28;20410;-65
2023/05/26 18:30:32;;;;;;;16.98;4.03;;;;;;;15.70;47.64;97085.78;10521853;28;20227;-66
2023/05/26 18:35:32;;;;;;;9.65;3.00;;;;;;;15.40;48.59;97102.56;10539942;28;20189;-64
2023/05/26 18:40:33;;;;;;;13.45;3.20;;;;;;;15.11;49.12;97112.00;10539658;28;20880;-65
2023/05/26 18:45:33;;;;;;;9.77;3.13;;;;;;;14.87;50.02;97123.50;10539599;28;20651;-66
2023/05/26 18:50:33;;;;;;;7.85;3.25;;;;;;;14.63;50.59;97141.13;10539219;28;20626;-66
2023/05/26 18:55:34;;;;;;;8.00;2.92;;;;;;;14.36;51.26;97152.88;10539192;28;20666;-66
2023/05/26 19:00:36;;;;;;;6.22;2.95;;;;;;;14.03;52.57;97176.69;10538791;28;20221;-66
2023/05/26 19:05:36;;;;;;;8.55;3.28;;;;;;;13.78;53.13;97192.47;10538990;28;20197;-66
2023/05/26 19:10:39;;;;;;;8.40;3.35;;;;;;;13.50;53.47;97194.59;10537416;28;20233;-66
2023/05/26 19:15:40;;;;;;;16.65;3.50;;;;;;;12.96;55.40;97232.59;10538470;28;20233;-66
2023/05/26 19:20:41;;;;;;;7.35;3.20;;;;;;;12.79;57.13;97262.44;10538044;28;20271;-66
2023/05/26 19:25:41;;;;;;;9.40;3.45;;;;;;;12.28;58.54;97289.41;10537878;28;20311;-65
2023/05/26 19:30:42;;;;;;;10.48;3.65;;;;;;;11.56;60.25;97291.16;10537520;28;20234;-65
2023/05/26 19:35:42;;;;;;;7.10;3.28;;;;;;;11.20;61.22;97304.22;10537446;28;20190;-65
2023/05/26 19:40:42;;;;;;;11.88;3.33;;;;;;;11.14;61.20;97307.44;10536933;28;20602;-64
2023/05/26 19:45:43;;;;;;;36.47;16.83;;;;;;;10.49;64.15;97342.22;10537009;28;20200;-65
2023/05/26 19:50:43;;;;;;;31.15;17.25;;;;;;;10.07;65.67;97374.75;10536824;28;20230;-65
2023/05/26 19:55:44;;;;;;;14.73;7.17;;;;;;;9.67;66.25;97362.59;10536647;28;20186;-65
2023/05/26 20:00:45;;;;;;;12.20;3.73;;;;;;;9.21;70.23;97417.06;10535292;28;20233;-64
2023/05/26 20:05:46;;;;;;;13.00;3.57;;;;;;;9.05;72.11;97437.63;10535919;28;20206;-65
2023/05/26 20:10:46;;;;;;;15.80;4.43;;;;;;;9.16;71.64;97428.88;10535811;28;20230;-65
2023/05/26 20:15:48;;;;;;;12.13;3.53;;;;;;;9.02;73.05;97430.03;10534195;28;20558;-64
2023/05/26 20:20:50;;;;;;;13.67;3.90;;;;;;;8.83;75.15;97451.66;10516846;28;20702;-65
2023/05/26 20:25:50;;;;;;;15.67;3.73;;;;;;;8.68;75.18;97443.28;10534483;28;20202;-64
2023/05/26 20:30:51;;;;;;;13.50;3.60;;;;;;;8.57;76.11;97462.47;10534974;28;20714;-63
2023/05/26 20:35:51;;;;;;;7.90;3.70;;;;;;;8.44;77.33;97460.03;10535819;28;20283;-64
2023/05/26 20:40:51;;;;;;;12.67;3.93;;;;;;;8.30;78.10;97471.56;10535366;28;20242;-64
2023/05/26 20:45:53;;;;;;;7.20;3.27;;;;;;;8.11;79.32;97476.59;10535052;28;20193;-65
2023/05/26 20:50:53;;;;;;;15.30;4.20;;;;;;;7.92;80.98;97490.28;10535041;28;20225;-64
2023/05/26 20:55:56;;;;;;;16.67;5.17;;;;;;;7.80;82.31;97486.84;10516864;28;20194;-64
2023/05/26 21:00:56;;;;;;;19.17;6.63;;;;;;;7.60;84.00;97491.81;10534974;28;20833;-64
2023/05/26 21:05:57;;;;;;;12.97;5.00;;;;;;;7.54;84.94;97497.50;10530039;28;20187;-64
2023/05/26 21:10:57;;;;;;;9.57;4.13;;;;;;;7.41;85.32;97497.63;10512101;28;20318;-64
2023/05/26 21:15:58;;;;;;;12.23;4.10;;;;;;;7.37;86.77;97503.19;10511747;28;20195;-64
2023/05/26 21:20:58;;;;;;;12.30;4.80;;;;;;;7.30;87.46;97501.06;10511564;28;20214;-63
2023/05/26 21:25:59;;;;;;;15.47;4.43;;;;;;;7.23;87.53;97502.44;10510519;28;20218;-65
2023/05/26 21:30:59;;;;;;;9.33;3.93;;;;;;;7.21;86.94;97500.91;10497984;28;20219;-65
2023/05/26 21:35:59;;;;;;;13.23;3.80;;;;;;;6.97;88.69;97512.22;10498712;28;20191;-65
2023/05/26 21:41:00;;;;;;;10.50;3.93;;;;;;;6.80;90.13;97521.28;10500268;28;20243;-64
2023/05/26 21:46:00;;;;;;;13.40;4.47;;;;;;;6.78;91.74;97520.56;10500411;28;20847;-64
2023/05/26 21:51:00;;;;;;;11.47;4.27;;;;;;;6.71;91.71;97520.19;10500350;28;20788;-64
2023/05/26 21:56:01;;;;;;;12.93;4.77;;;;;;;6.73;90.94;97523.50;10500282;28;20801;-64
2023/05/26 22:01:01;;;;;;;18.53;4.27;;;;;;;6.68;90.42;97523.00;10500034;28;20209;-64
2023/05/26 22:06:02;;;;;;;11.00;3.70;;;;;;;6.57;91.55;97530.75;10499667;28;20191;-64
2023/05/26 22:11:02;;;;;;;9.67;3.83;;;;;;;6.34;93.49;97530.66;10499538;28;20247;-64
2023/05/26 22:16:03;;;;;;;15.97;3.33;;;;;;;6.14;96.03;97534.69;10499505;28;20718;-65
2023/05/26 22:21:03;;;;;;;11.50;3.20;;;;;;;6.11;96.90;97536.63;10499208;28;20215;-65
2023/05/26 22:26:05;;;;;;;13.57;4.47;;;;;;;6.06;97.83;97539.56;10499288;28;20198;-65
2023/05/26 22:31:05;;;;;;;25.07;7.47;;;;;;;5.95;98.90;97544.66;10498585;28;20219;-65
2023/05/26 22:36:06;;;;;;;18.23;5.37;;;;;;;5.76;100.00;97545.94;10498772;28;20237;-65
2023/05/26 22:41:06;;;;;;;16.37;3.70;;;;;;;5.59;100.00;97539.31;10498229;28;20231;-64
2023/05/26 22:46:06;;;;;;;21.13;5.30;;;;;;;5.45;100.00;97553.25;10498339;28;20226;-63
2023/05/26 22:51:07;;;;;;;18.60;4.60;;;;;;;5.38;100.00;97561.56;10497983;28;20231;-64
2023/05/26 22:56:07;;;;;;;13.90;6.10;;;;;;;5.39;100.00;97558.84;10497807;28;20207;-65
2023/05/26 23:01:08;;;;;;;16.40;5.57;;;;;;;5.42;100.00;97556.03;10497635;28;20317;-65
2023/05/26 23:06:08;;;;;;;10.30;4.30;;;;;;;5.38;100.00;97557.19;10497459;28;20190;-64
2023/05/26 23:11:09;;;;;;;14.17;4.73;;;;;;;5.35;100.00;97558.22;10497255;28;20235;-64